sensor_id;sensor_type;location;lat;lon;timestamp;pressure;altitude;pressure_sealevel;temperature;humidity
6136;BME280;24008;42.664;23.372;2022-09-03T00:00:29;93723.94;;;12.92;81.31
6136;BME280;24008;42.664;23.372;2022-09-03T00:03:03;93763.19;;;13.37;81.31
6136;BME280;24008;42.664;23.372;2022-09-03T00:05:36;94662.97;;;19.18;81.47
6136;BME280;24008;42.664;23.372;2022-09-03T00:08:09;94496.66;;;18.14;81.15
6136;BME280;24008;42.664;23.372;2022-09-03T00:10:44;94641.19;;;18.99;80.79
6136;BME280;24008;42.664;23.372;2022-09-03T00:13:15;94723.06;;;19.48;80.42
6136;BME280;24008;42.664;23.372;2022-09-03T00:15:44;94393.31;;;17.45;81.03
6136;BME280;24008;42.664;23.372;2022-09-03T00:18:15;94435.03;;;17.76;80.74
6136;BME280;24008;42.664;23.372;2022-09-03T00:20:49;94305.44;;;16.97;80.41
6136;BME280;24008;42.664;23.372;2022-09-03T00:23:20;94697.50;;;19.44;80.13
6136;BME280;24008;42.664;23.372;2022-09-03T00:25:53;94306.03;;;16.65;79.47
6136;BME280;24008;42.664;23.372;2022-09-03T00:28:25;93937.19;;;14.07;78.73
6136;BME280;24008;42.664;23.372;2022-09-03T00:31:04;94686.94;;;18.79;79.24
6136;BME280;24008;42.664;23.372;2022-09-03T00:33:33;93735.59;;;13.24;78.89
6136;BME280;24008;42.664;23.372;2022-09-03T00:36:09;94609.72;;;18.54;78.63
6136;BME280;24008;42.664;23.372;2022-09-03T00:38:38;94289.84;;;16.77;78.97
6136;BME280;24008;42.664;23.372;2022-09-03T00:41:08;94319.41;;;16.53;79.29
6136;BME280;24008;42.664;23.372;2022-09-03T00:43:59;94526.16;;;18.26;79.45
6136;BME280;24008;42.664;23.372;2022-09-03T00:46:37;94503.47;;;17.80;79.75
6136;BME280;24008;42.664;23.372;2022-09-03T00:49:28;94380.38;;;17.10;79.50
6136;BME280;24008;42.664;23.372;2022-09-03T00:52:06;93998.00;;;14.93;79.51
6136;BME280;24008;42.664;23.372;2022-09-03T00:54:45;94283.81;;;16.21;79.51
6136;BME280;24008;42.664;23.372;2022-09-03T00:57:27;94203.09;;;15.93;78.91
6136;BME280;24008;42.664;23.372;2022-09-03T01:00:03;94338.63;;;17.00;79.48
6136;BME280;24008;42.664;23.372;2022-09-03T01:02:40;94648.94;;;18.99;79.18
6136;BME280;24008;42.664;23.372;2022-09-03T01:05:21;94180.13;;;15.98;79.07
6136;BME280;24008;42.664;23.372;2022-09-03T01:08:01;94364.56;;;16.92;79.30
6136;BME280;24008;42.664;23.372;2022-09-03T01:10:37;94294.94;;;16.71;79.09
6136;BME280;24008;42.664;23.372;2022-09-03T01:13:13;93640.03;;;12.50;78.87
6136;BME280;24008;42.664;23.372;2022-09-03T01:15:47;94607.50;;;18.10;79.53
6136;BME280;24008;42.664;23.372;2022-09-03T01:18:25;94770.66;;;19.33;79.42
6136;BME280;24008;42.664;23.372;2022-09-03T01:21:06;94734.31;;;19.14;79.59
6136;BME280;24008;42.664;23.372;2022-09-03T01:24:01;94711.66;;;19.35;79.19
6136;BME280;24008;42.664;23.372;2022-09-03T01:27:01;93921.63;;;13.94;78.71
6136;BME280;24008;42.664;23.372;2022-09-03T01:29:38;94528.00;;;17.63;78.89
6136;BME280;24008;42.664;23.372;2022-09-03T01:32:15;94347.69;;;16.89;78.93
6136;BME280;24008;42.664;23.372;2022-09-03T01:34:54;94246.56;;;16.24;78.84
6136;BME280;24008;42.664;23.372;2022-09-03T01:37:32;94822.50;;;19.33;78.83
6136;BME280;24008;42.664;23.372;2022-09-03T01:40:11;93710.72;;;12.74;78.45
6136;BME280;24008;42.664;23.372;2022-09-03T01:42:49;94785.00;;;19.29;78.88
6136;BME280;24008;42.664;23.372;2022-09-03T01:45:40;94023.88;;;14.34;78.42
6136;BME280;24008;42.664;23.372;2022-09-03T01:48:29;94369.13;;;16.90;79.05
6136;BME280;24008;42.664;23.372;2022-09-03T01:51:04;94642.09;;;18.09;78.60
6136;BME280;24008;42.664;23.372;2022-09-03T01:53:50;94065.72;;;15.00;78.83
6136;BME280;24008;42.664;23.372;2022-09-03T01:56:30;94685.81;;;18.94;79.37
6136;BME280;24008;42.664;23.372;2022-09-03T01:59:02;94346.59;;;16.77;78.89
6136;BME280;24008;42.664;23.372;2022-09-03T02:01:36;94341.38;;;16.71;78.58
6136;BME280;24008;42.664;23.372;2022-09-03T02:04:17;94329.09;;;16.73;78.82
6136;BME280;24008;42.664;23.372;2022-09-03T02:06:45;94531.00;;;17.94;78.99
6136;BME280;24008;42.664;23.372;2022-09-03T02:09:13;94428.41;;;16.77;78.92
6136;BME280;24008;42.664;23.372;2022-09-03T02:11:41;93698.88;;;12.73;78.38
6136;BME280;24008;42.664;23.372;2022-09-03T02:14:11;94299.31;;;16.49;78.81
6136;BME280;24008;42.664;23.372;2022-09-03T02:16:40;93629.44;;;12.24;78.14
6136;BME280;24008;42.664;23.372;2022-09-03T02:19:11;94216.63;;;16.01;78.45
6136;BME280;24008;42.664;23.372;2022-09-03T02:21:45;94281.59;;;16.39;78.06
6136;BME280;24008;42.664;23.372;2022-09-03T02:24:14;93717.63;;;12.59;77.56
6136;BME280;24008;42.664;23.372;2022-09-03T02:26:41;94234.84;;;16.00;77.92
6136;BME280;24008;42.664;23.372;2022-09-03T02:29:09;94118.75;;;15.16;77.80
6136;BME280;24008;42.664;23.372;2022-09-03T02:31:37;94743.09;;;19.19;78.01
6136;BME280;24008;42.664;23.372;2022-09-03T02:34:05;94419.56;;;17.14;78.04
6136;BME280;24008;42.664;23.372;2022-09-03T02:36:35;93715.50;;;12.62;77.67
6136;BME280;24008;42.664;23.372;2022-09-03T02:39:03;94678.13;;;18.73;78.51
6136;BME280;24008;42.664;23.372;2022-09-03T02:41:31;94623.19;;;18.43;78.51
6136;BME280;24008;42.664;23.372;2022-09-03T02:44:02;94291.75;;;15.77;78.50
6136;BME280;24008;42.664;23.372;2022-09-03T02:46:34;94665.53;;;18.63;78.48
6136;BME280;24008;42.664;23.372;2022-09-03T02:49:02;93756.41;;;12.71;77.78
6136;BME280;24008;42.664;23.372;2022-09-03T02:51:33;93819.28;;;12.81;77.20
6136;BME280;24008;42.664;23.372;2022-09-03T02:54:01;94422.06;;;17.07;77.46
6136;BME280;24008;42.664;23.372;2022-09-03T02:56:28;94759.47;;;19.20;77.82
6136;BME280;24008;42.664;23.372;2022-09-03T02:58:55;94335.25;;;16.50;77.73
6136;BME280;24008;42.664;23.372;2022-09-03T03:01:23;94041.41;;;14.60;77.57
6136;BME280;24008;42.664;23.372;2022-09-03T03:03:51;94586.75;;;18.04;77.82
6136;BME280;24008;42.664;23.372;2022-09-03T03:06:18;93908.13;;;13.41;77.62
6136;BME280;24008;42.664;23.372;2022-09-03T03:08:48;93719.56;;;12.57;77.67
6136;BME280;24008;42.664;23.372;2022-09-03T03:11:16;94359.31;;;16.57;77.86
6136;BME280;24008;42.664;23.372;2022-09-03T03:13:44;94745.44;;;19.08;78.34
6136;BME280;24008;42.664;23.372;2022-09-03T03:16:12;94252.63;;;15.52;77.37
6136;BME280;24008;42.664;23.372;2022-09-03T03:18:40;94631.56;;;18.45;77.66
6136;BME280;24008;42.664;23.372;2022-09-03T03:21:08;94757.06;;;19.18;77.64
6136;BME280;24008;42.664;23.372;2022-09-03T03:23:37;94668.91;;;18.29;77.24
6136;BME280;24008;42.664;23.372;2022-09-03T03:26:08;94766.81;;;19.16;77.14
6136;BME280;24008;42.664;23.372;2022-09-03T03:28:35;94182.63;;;15.27;77.14
6136;BME280;24008;42.664;23.372;2022-09-03T03:31:06;94230.69;;;15.77;77.31
6136;BME280;24008;42.664;23.372;2022-09-03T03:33:33;94403.91;;;16.94;77.54
6136;BME280;24008;42.664;23.372;2022-09-03T03:36:03;94762.56;;;19.08;77.77
6136;BME280;24008;42.664;23.372;2022-09-03T03:38:30;94462.13;;;17.24;77.39
6136;BME280;24008;42.664;23.372;2022-09-03T03:40:57;94128.97;;;14.73;77.77
6136;BME280;24008;42.664;23.372;2022-09-03T03:43:26;93722.03;;;12.50;77.21
6136;BME280;24008;42.664;23.372;2022-09-03T03:45:56;94752.00;;;19.03;77.53
6136;BME280;24008;42.664;23.372;2022-09-03T03:48:24;94771.31;;;19.01;78.23
6136;BME280;24008;42.664;23.372;2022-09-03T03:50:51;94752.19;;;19.02;78.16
6136;BME280;24008;42.664;23.372;2022-09-03T03:53:18;93865.50;;;13.40;77.39
6136;BME280;24008;42.664;23.372;2022-09-03T03:55:53;94741.56;;;18.90;77.58
6136;BME280;24008;42.664;23.372;2022-09-03T03:58:21;94096.59;;;14.79;77.40
6136;BME280;24008;42.664;23.372;2022-09-03T04:00:51;94137.25;;;15.05;77.77
6136;BME280;24008;42.664;23.372;2022-09-03T04:03:18;94424.56;;;16.94;78.22
6136;BME280;24008;42.664;23.372;2022-09-03T04:05:54;94279.72;;;16.05;77.93
6136;BME280;24008;42.664;23.372;2022-09-03T04:08:21;94282.84;;;16.01;77.80
6136;BME280;24008;42.664;23.372;2022-09-03T04:10:48;94753.00;;;19.09;77.87
6136;BME280;24008;42.664;23.372;2022-09-03T04:13:15;94643.19;;;18.21;77.74
6136;BME280;24008;42.664;23.372;2022-09-03T04:15:43;94701.47;;;18.80;77.83
6136;BME280;24008;42.664;23.372;2022-09-03T04:18:11;94359.13;;;16.59;77.54
6136;BME280;24008;42.664;23.372;2022-09-03T04:20:38;94477.78;;;16.95;76.99
6136;BME280;24008;42.664;23.372;2022-09-03T04:23:05;94427.72;;;16.89;76.64
6136;BME280;24008;42.664;23.372;2022-09-03T04:25:32;94222.97;;;15.20;76.61
6136;BME280;24008;42.664;23.372;2022-09-03T04:27:59;94770.19;;;19.17;77.05
6136;BME280;24008;42.664;23.372;2022-09-03T04:30:28;94219.91;;;15.67;76.57
6136;BME280;24008;42.664;23.372;2022-09-03T04:32:55;94791.13;;;19.15;76.88
6136;BME280;24008;42.664;23.372;2022-09-03T04:35:24;94762.81;;;19.14;77.20
6136;BME280;24008;42.664;23.372;2022-09-03T04:37:58;94810.47;;;19.19;77.00
6136;BME280;24008;42.664;23.372;2022-09-03T04:40:25;94443.50;;;16.80;75.98
6136;BME280;24008;42.664;23.372;2022-09-03T04:42:56;94697.81;;;18.67;76.49
6136;BME280;24008;42.664;23.372;2022-09-03T04:45:24;94743.38;;;18.96;76.74
6136;BME280;24008;42.664;23.372;2022-09-03T04:47:57;94232.59;;;15.33;76.29
6136;BME280;24008;42.664;23.372;2022-09-03T04:50:25;94370.44;;;16.58;76.08
6136;BME280;24008;42.664;23.372;2022-09-03T04:52:53;94783.34;;;19.15;76.68
6136;BME280;24008;42.664;23.372;2022-09-03T04:55:22;94429.84;;;16.86;76.83
6136;BME280;24008;42.664;23.372;2022-09-03T04:57:49;94469.50;;;16.78;76.67
6136;BME280;24008;42.664;23.372;2022-09-03T05:00:17;94735.75;;;18.82;76.85
6136;BME280;24008;42.664;23.372;2022-09-03T05:02:44;94576.28;;;17.84;77.05
6136;BME280;24008;42.664;23.372;2022-09-03T05:05:14;94686.47;;;18.41;76.63
6136;BME280;24008;42.664;23.372;2022-09-03T05:07:42;94152.50;;;15.06;75.74
6136;BME280;24008;42.664;23.372;2022-09-03T05:10:11;94801.03;;;19.05;76.66
6136;BME280;24008;42.664;23.372;2022-09-03T05:12:41;94210.03;;;15.35;75.98
6136;BME280;24008;42.664;23.372;2022-09-03T05:15:08;94356.28;;;16.05;76.07
6136;BME280;24008;42.664;23.372;2022-09-03T05:17:35;93841.31;;;12.90;76.05
6136;BME280;24008;42.664;23.372;2022-09-03T05:20:04;94847.59;;;19.33;76.19
6136;BME280;24008;42.664;23.372;2022-09-03T05:22:32;93827.59;;;12.83;75.74
6136;BME280;24008;42.664;23.372;2022-09-03T05:25:01;94763.69;;;18.93;76.02
6136;BME280;24008;42.664;23.372;2022-09-03T05:27:30;94278.09;;;15.47;75.93
6136;BME280;24008;42.664;23.372;2022-09-03T05:29:57;93841.75;;;13.09;75.47
6136;BME280;24008;42.664;23.372;2022-09-03T05:32:24;93817.06;;;12.93;75.78
6136;BME280;24008;42.664;23.372;2022-09-03T05:34:53;94763.53;;;19.01;76.70
6136;BME280;24008;42.664;23.372;2022-09-03T05:37:22;94695.59;;;18.58;76.74
6136;BME280;24008;42.664;23.372;2022-09-03T05:39:50;94822.34;;;19.41;76.21
6136;BME280;24008;42.664;23.372;2022-09-03T05:42:19;94440.19;;;16.86;75.52
6136;BME280;24008;42.664;23.372;2022-09-03T05:44:47;94826.03;;;19.54;76.00
6136;BME280;24008;42.664;23.372;2022-09-03T05:47:15;94177.22;;;15.22;74.57
6136;BME280;24008;42.664;23.372;2022-09-03T05:49:45;93827.53;;;13.21;74.57
6136;BME280;24008;42.664;23.372;2022-09-03T05:52:13;94282.53;;;15.53;74.54
6136;BME280;24008;42.664;23.372;2022-09-03T05:54:41;94134.50;;;14.70;74.29
6136;BME280;24008;42.664;23.372;2022-09-03T05:57:08;94814.56;;;19.41;74.43
6136;BME280;24008;42.664;23.372;2022-09-03T05:59:36;94855.53;;;19.53;74.41
6136;BME280;24008;42.664;23.372;2022-09-03T06:02:03;94351.28;;;16.46;74.41
6136;BME280;24008;42.664;23.372;2022-09-03T06:04:30;94471.69;;;17.31;74.26
6136;BME280;24008;42.664;23.372;2022-09-03T06:06:58;94246.34;;;15.55;74.39
6136;BME280;24008;42.664;23.372;2022-09-03T06:09:25;94244.44;;;15.63;74.38
6136;BME280;24008;42.664;23.372;2022-09-03T06:11:54;94443.09;;;17.32;74.07
6136;BME280;24008;42.664;23.372;2022-09-03T06:14:21;94220.16;;;15.94;73.62
6136;BME280;24008;42.664;23.372;2022-09-03T06:16:49;94858.69;;;19.96;73.83
6136;BME280;24008;42.664;23.372;2022-09-03T06:19:17;94660.59;;;18.68;73.14
6136;BME280;24008;42.664;23.372;2022-09-03T06:21:46;94330.41;;;16.90;72.59
6136;BME280;24008;42.664;23.372;2022-09-03T06:24:14;93811.34;;;13.56;72.68
6136;BME280;24008;42.664;23.372;2022-09-03T06:26:42;94835.38;;;20.22;72.53
6136;BME280;24008;42.664;23.372;2022-09-03T06:29:09;94853.56;;;20.29;72.17
6136;BME280;24008;42.664;23.372;2022-09-03T06:31:36;94335.56;;;16.90;71.48
6136;BME280;24008;42.664;23.372;2022-09-03T06:34:05;94849.56;;;20.33;71.84
6136;BME280;24008;42.664;23.372;2022-09-03T06:36:33;94853.59;;;20.42;71.73
6136;BME280;24008;42.664;23.372;2022-09-03T06:39:00;94849.56;;;20.33;71.18
6136;BME280;24008;42.664;23.372;2022-09-03T06:41:29;94858.03;;;20.61;71.13
6136;BME280;24008;42.664;23.372;2022-09-03T06:43:59;94856.84;;;20.70;70.70
6136;BME280;24008;42.664;23.372;2022-09-03T06:46:29;94784.50;;;20.41;70.29
6136;BME280;24008;42.664;23.372;2022-09-03T06:48:56;94854.84;;;20.99;69.47
6136;BME280;24008;42.664;23.372;2022-09-03T06:51:25;94859.63;;;20.95;68.13
6136;BME280;24008;42.664;23.372;2022-09-03T06:53:54;94860.22;;;21.04;68.14
6136;BME280;24008;42.664;23.372;2022-09-03T06:56:25;94722.00;;;20.23;68.30
6136;BME280;24008;42.664;23.372;2022-09-03T06:58:53;94861.22;;;21.09;68.62
6136;BME280;24008;42.664;23.372;2022-09-03T07:01:21;94861.59;;;21.06;68.53
6136;BME280;24008;42.664;23.372;2022-09-03T07:03:53;94864.38;;;21.18;69.17
6136;BME280;24008;42.664;23.372;2022-09-03T07:06:24;94792.28;;;20.87;68.77
6136;BME280;24008;42.664;23.372;2022-09-03T07:08:52;94795.28;;;20.84;67.58
6136;BME280;24008;42.664;23.372;2022-09-03T07:11:21;94868.16;;;21.48;68.05
6136;BME280;24008;42.664;23.372;2022-09-03T07:13:50;94779.44;;;21.05;67.27
6136;BME280;24008;42.664;23.372;2022-09-03T07:16:19;94875.84;;;21.81;66.13
6136;BME280;24008;42.664;23.372;2022-09-03T07:18:47;94837.44;;;21.77;65.58
6136;BME280;24008;42.664;23.372;2022-09-03T07:21:16;94293.94;;;18.28;65.29
6136;BME280;24008;42.664;23.372;2022-09-03T07:23:45;94865.38;;;22.01;65.23
6136;BME280;24008;42.664;23.372;2022-09-03T07:26:15;94849.50;;;21.65;64.50
6136;BME280;24008;42.664;23.372;2022-09-03T07:28:43;94892.69;;;21.79;65.31
6136;BME280;24008;42.664;23.372;2022-09-03T07:31:12;94603.25;;;19.85;65.27
6136;BME280;24008;42.664;23.372;2022-09-03T07:33:40;94720.56;;;20.66;66.26
6136;BME280;24008;42.664;23.372;2022-09-03T07:36:08;94458.88;;;19.00;66.56
6136;BME280;24008;42.664;23.372;2022-09-03T07:38:36;94721.00;;;20.63;66.88
6136;BME280;24008;42.664;23.372;2022-09-03T07:41:05;94048.63;;;16.26;66.35
6136;BME280;24008;42.664;23.372;2022-09-03T07:43:34;94892.47;;;21.74;67.03
6136;BME280;24008;42.664;23.372;2022-09-03T07:46:01;94795.22;;;21.17;67.09
6136;BME280;24008;42.664;23.372;2022-09-03T07:48:28;94609.63;;;20.16;67.02
6136;BME280;24008;42.664;23.372;2022-09-03T07:50:57;94895.16;;;22.18;66.53
6136;BME280;24008;42.664;23.372;2022-09-03T07:53:25;94500.69;;;19.89;65.10
6136;BME280;24008;42.664;23.372;2022-09-03T07:55:53;94892.59;;;22.75;64.11
6136;BME280;24008;42.664;23.372;2022-09-03T07:58:22;94896.09;;;22.93;63.10
6136;BME280;24008;42.664;23.372;2022-09-03T08:00:49;94898.56;;;23.07;62.04
6136;BME280;24008;42.664;23.372;2022-09-03T08:03:16;94891.88;;;23.17;61.76
6136;BME280;24008;42.664;23.372;2022-09-03T08:05:43;94911.47;;;23.02;60.78
6136;BME280;24008;42.664;23.372;2022-09-03T08:08:10;94903.13;;;23.18;60.79
6136;BME280;24008;42.664;23.372;2022-09-03T08:10:40;94907.56;;;23.11;60.16
6136;BME280;24008;42.664;23.372;2022-09-03T08:13:07;94905.97;;;23.10;60.89
6136;BME280;24008;42.664;23.372;2022-09-03T08:15:36;94903.56;;;23.08;60.64
6136;BME280;24008;42.664;23.372;2022-09-03T08:18:07;94902.78;;;23.08;61.22
6136;BME280;24008;42.664;23.372;2022-09-03T08:20:35;94903.97;;;23.12;61.48
6136;BME280;24008;42.664;23.372;2022-09-03T08:23:03;94909.06;;;23.25;62.05
6136;BME280;24008;42.664;23.372;2022-09-03T08:25:30;94905.81;;;23.54;62.19
6136;BME280;24008;42.664;23.372;2022-09-03T08:27:58;94812.13;;;23.46;59.98
6136;BME280;24008;42.664;23.372;2022-09-03T08:30:25;94837.19;;;24.02;58.45
6136;BME280;24008;42.664;23.372;2022-09-03T08:32:54;94226.63;;;20.33;56.99
6136;BME280;24008;42.664;23.372;2022-09-03T08:35:21;94919.78;;;25.04;56.33
6136;BME280;24008;42.664;23.372;2022-09-03T08:37:48;94082.69;;;19.92;55.31
6136;BME280;24008;42.664;23.372;2022-09-03T08:40:19;94605.78;;;23.66;53.61
6136;BME280;24008;42.664;23.372;2022-09-03T08:43:04;94821.31;;;25.22;53.28
6136;BME280;24008;42.664;23.372;2022-09-03T08:45:35;94735.78;;;24.87;52.39
6136;BME280;24008;42.664;23.372;2022-09-03T08:48:07;94736.34;;;25.01;51.66
6136;BME280;24008;42.664;23.372;2022-09-03T08:50:38;94884.88;;;26.09;51.48
6136;BME280;24008;42.664;23.372;2022-09-03T08:53:11;94897.47;;;26.24;52.33
6136;BME280;24008;42.664;23.372;2022-09-03T08:55:49;94805.72;;;25.78;52.08
6136;BME280;24008;42.664;23.372;2022-09-03T08:58:17;94892.53;;;26.39;51.38
6136;BME280;24008;42.664;23.372;2022-09-03T09:00:53;94899.28;;;26.35;51.21
6136;BME280;24008;42.664;23.372;2022-09-03T09:03:33;94902.41;;;26.20;50.67
6136;BME280;24008;42.664;23.372;2022-09-03T09:06:09;94891.84;;;26.03;51.26
6136;BME280;24008;42.664;23.372;2022-09-03T09:08:44;94695.91;;;24.68;52.25
6136;BME280;24008;42.664;23.372;2022-09-03T09:11:25;94795.81;;;25.29;52.21
6136;BME280;24008;42.664;23.372;2022-09-03T09:13:57;94885.09;;;25.67;52.19
6136;BME280;24008;42.664;23.372;2022-09-03T09:16:33;94510.06;;;23.25;51.01
6136;BME280;24008;42.664;23.372;2022-09-03T09:19:12;94734.09;;;24.81;52.32
6136;BME280;24008;42.664;23.372;2022-09-03T09:21:46;94898.41;;;25.77;52.73
6136;BME280;24008;42.664;23.372;2022-09-03T09:24:21;94748.63;;;24.77;52.61
6136;BME280;24008;42.664;23.372;2022-09-03T09:26:50;94900.44;;;25.75;53.73
6136;BME280;24008;42.664;23.372;2022-09-03T09:29:20;94741.72;;;24.94;53.10
6136;BME280;24008;42.664;23.372;2022-09-03T09:31:47;94906.31;;;26.06;52.16
6136;BME280;24008;42.664;23.372;2022-09-03T09:34:15;94903.44;;;26.19;52.45
6136;BME280;24008;42.664;23.372;2022-09-03T09:36:46;94746.47;;;25.21;51.33
6136;BME280;24008;42.664;23.372;2022-09-03T09:39:14;94886.53;;;25.87;50.97
6136;BME280;24008;42.664;23.372;2022-09-03T09:41:41;94898.97;;;26.31;51.61
6136;BME280;24008;42.664;23.372;2022-09-03T09:44:18;94910.00;;;26.33;51.17
6136;BME280;24008;42.664;23.372;2022-09-03T09:46:46;94724.28;;;25.23;51.55
6136;BME280;24008;42.664;23.372;2022-09-03T09:49:28;94792.91;;;25.54;51.08
6136;BME280;24008;42.664;23.372;2022-09-03T09:52:04;94900.28;;;26.05;51.42
6136;BME280;24008;42.664;23.372;2022-09-03T09:54:33;94902.72;;;26.24;51.77
6136;BME280;24008;42.664;23.372;2022-09-03T09:57:02;94693.28;;;24.80;51.40
6136;BME280;24008;42.664;23.372;2022-09-03T09:59:30;94853.50;;;25.86;51.69
6136;BME280;24008;42.664;23.372;2022-09-03T10:02:07;94456.66;;;23.27;51.77
6136;BME280;24008;42.664;23.372;2022-09-03T10:04:36;94475.59;;;23.46;51.17
6136;BME280;24008;42.664;23.372;2022-09-03T10:07:18;94747.16;;;25.04;51.07
6136;BME280;24008;42.664;23.372;2022-09-03T10:09:58;94907.38;;;26.33;51.44
6136;BME280;24008;42.664;23.372;2022-09-03T10:12:30;94467.78;;;23.46;50.65
6136;BME280;24008;42.664;23.372;2022-09-03T10:15:13;94908.16;;;26.34;50.88
6136;BME280;24008;42.664;23.372;2022-09-03T10:17:50;94907.16;;;26.23;50.86
6136;BME280;24008;42.664;23.372;2022-09-03T10:20:25;94900.59;;;26.09;50.39
6136;BME280;24008;42.664;23.372;2022-09-03T10:22:58;94903.59;;;26.01;51.50
6136;BME280;24008;42.664;23.372;2022-09-03T10:25:29;94575.97;;;23.85;52.22
6136;BME280;24008;42.664;23.372;2022-09-03T10:28:00;94868.25;;;25.52;52.17
6136;BME280;24008;42.664;23.372;2022-09-03T10:30:28;94902.97;;;25.70;51.96
6136;BME280;24008;42.664;23.372;2022-09-03T10:33:09;94904.34;;;25.61;52.35
6136;BME280;24008;42.664;23.372;2022-09-03T10:35:42;94454.69;;;22.58;52.83
6136;BME280;24008;42.664;23.372;2022-09-03T10:38:17;94851.91;;;25.09;53.33
6136;BME280;24008;42.664;23.372;2022-09-03T10:40:58;94430.06;;;22.24;53.48
6136;BME280;24008;42.664;23.372;2022-09-03T10:43:44;94904.53;;;25.25;54.62
6136;BME280;24008;42.664;23.372;2022-09-03T10:46:24;94901.38;;;25.23;55.04
6136;BME280;24008;42.664;23.372;2022-09-03T10:49:14;94905.47;;;25.19;55.05
6136;BME280;24008;42.664;23.372;2022-09-03T10:51:49;94909.75;;;25.01;54.09
6136;BME280;24008;42.664;23.372;2022-09-03T10:54:33;94475.25;;;22.11;54.67
6136;BME280;24008;42.664;23.372;2022-09-03T10:57:09;94710.69;;;23.86;54.83
6136;BME280;24008;42.664;23.372;2022-09-03T10:59:54;94860.22;;;24.76;53.94
6136;BME280;24008;42.664;23.372;2022-09-03T11:02:41;94367.91;;;21.79;54.46
6136;BME280;24008;42.664;23.372;2022-09-03T11:05:14;94889.31;;;25.22;54.02
6136;BME280;24008;42.664;23.372;2022-09-03T11:07:48;94612.91;;;23.29;53.43
6136;BME280;24008;42.664;23.372;2022-09-03T11:10:20;94892.72;;;25.34;54.15
6136;BME280;24008;42.664;23.372;2022-09-03T11:12:54;94887.16;;;25.42;53.91
6136;BME280;24008;42.664;23.372;2022-09-03T11:15:28;94890.69;;;25.47;54.26
6136;BME280;24008;42.664;23.372;2022-09-03T11:18:02;94895.66;;;25.49;53.43
6136;BME280;24008;42.664;23.372;2022-09-03T11:20:30;94898.97;;;25.44;52.66
6136;BME280;24008;42.664;23.372;2022-09-03T11:23:02;94897.47;;;25.37;52.51
6136;BME280;24008;42.664;23.372;2022-09-03T11:25:31;94415.22;;;22.24;52.69
6136;BME280;24008;42.664;23.372;2022-09-03T11:28:09;94495.59;;;22.69;53.37
6136;BME280;24008;42.664;23.372;2022-09-03T11:30:48;94888.84;;;25.25;53.16
6136;BME280;24008;42.664;23.372;2022-09-03T11:33:20;94748.72;;;24.24;53.67
6136;BME280;24008;42.664;23.372;2022-09-03T11:35:55;94899.09;;;25.15;53.96
6136;BME280;24008;42.664;23.372;2022-09-03T11:38:27;94891.13;;;25.09;53.75
6136;BME280;24008;42.664;23.372;2022-09-03T11:41:03;94898.41;;;25.07;54.29
6136;BME280;24008;42.664;23.372;2022-09-03T11:43:32;94744.88;;;24.08;53.47
6136;BME280;24008;42.664;23.372;2022-09-03T11:46:05;94897.69;;;25.00;53.79
6136;BME280;24008;42.664;23.372;2022-09-03T11:48:38;94891.22;;;25.03;52.88
6136;BME280;24008;42.664;23.372;2022-09-03T11:51:30;94742.72;;;24.05;53.31
6136;BME280;24008;42.664;23.372;2022-09-03T11:54:01;94467.25;;;22.13;53.73
6136;BME280;24008;42.664;23.372;2022-09-03T11:56:29;94502.53;;;22.45;54.34
6136;BME280;24008;42.664;23.372;2022-09-03T11:59:14;94894.75;;;24.97;53.66
6136;BME280;24008;42.664;23.372;2022-09-03T12:01:45;94893.75;;;24.98;53.72
6136;BME280;24008;42.664;23.372;2022-09-03T12:04:18;94898.16;;;24.97;53.82
6136;BME280;24008;42.664;23.372;2022-09-03T12:06:58;94531.44;;;22.55;53.71
6136;BME280;24008;42.664;23.372;2022-09-03T12:09:55;94713.28;;;23.86;53.25
6136;BME280;24008;42.664;23.372;2022-09-03T12:12:47;94880.16;;;24.89;54.01
6136;BME280;24008;42.664;23.372;2022-09-03T12:15:30;94787.09;;;24.23;54.82
6136;BME280;24008;42.664;23.372;2022-09-03T12:18:03;94755.91;;;24.10;54.33
6136;BME280;24008;42.664;23.372;2022-09-03T12:20:47;94583.00;;;23.02;54.08
6136;BME280;24008;42.664;23.372;2022-09-03T12:23:27;94426.91;;;21.85;54.26
6136;BME280;24008;42.664;23.372;2022-09-03T12:25:57;94875.72;;;24.90;54.50
6136;BME280;24008;42.664;23.372;2022-09-03T12:28:29;94498.38;;;22.56;54.56
6136;BME280;24008;42.664;23.372;2022-09-03T12:31:05;94873.31;;;24.88;54.68
6136;BME280;24008;42.664;23.372;2022-09-03T12:33:44;94871.50;;;24.89;54.34
6136;BME280;24008;42.664;23.372;2022-09-03T12:36:12;94870.47;;;24.90;53.82
6136;BME280;24008;42.664;23.372;2022-09-03T12:38:39;94779.84;;;24.25;53.97
6136;BME280;24008;42.664;23.372;2022-09-03T12:41:20;94424.94;;;21.99;53.51
6136;BME280;24008;42.664;23.372;2022-09-03T12:43:50;94875.59;;;24.85;54.40
6136;BME280;24008;42.664;23.372;2022-09-03T12:46:22;94868.22;;;24.82;53.83
6136;BME280;24008;42.664;23.372;2022-09-03T12:48:55;94658.97;;;23.35;53.82
6136;BME280;24008;42.664;23.372;2022-09-03T12:51:22;94869.91;;;24.76;54.17
6136;BME280;24008;42.664;23.372;2022-09-03T12:53:50;94861.72;;;24.61;54.17
6136;BME280;24008;42.664;23.372;2022-09-03T12:56:21;94855.34;;;24.80;54.20
6136;BME280;24008;42.664;23.372;2022-09-03T12:58:52;94391.34;;;21.79;53.94
6136;BME280;24008;42.664;23.372;2022-09-03T13:01:26;94737.13;;;23.60;54.20
6136;BME280;24008;42.664;23.372;2022-09-03T13:04:00;94729.56;;;24.00;54.62
6136;BME280;24008;42.664;23.372;2022-09-03T13:06:34;94849.44;;;24.73;54.62
6136;BME280;24008;42.664;23.372;2022-09-03T13:09:07;94848.97;;;24.76;54.82
6136;BME280;24008;42.664;23.372;2022-09-03T13:11:36;94787.16;;;24.17;54.16
6136;BME280;24008;42.664;23.372;2022-09-03T13:14:05;94854.34;;;24.81;53.84
6136;BME280;24008;42.664;23.372;2022-09-03T13:19:42;94743.63;;;23.99;53.35
6136;BME280;24008;42.664;23.372;2022-09-03T13:22:17;94683.56;;;23.87;53.14
6136;BME280;24008;42.664;23.372;2022-09-03T13:25:10;94843.44;;;24.84;53.26
6136;BME280;24008;42.664;23.372;2022-09-03T13:27:52;94682.84;;;23.80;53.30